sensor_id;sensor_type;location;lat;lon;timestamp;temperature;humidity
40374;DHT22;26079;45.958;12.492;2022-09-27T00:00:41;14.30;99.90
40374;DHT22;26079;45.958;12.492;2022-09-27T00:03:08;14.40;99.90
40374;DHT22;26079;45.958;12.492;2022-09-27T00:05:34;14.50;99.90
40374;DHT22;26079;45.958;12.492;2022-09-27T00:08:00;14.50;99.90
40374;DHT22;26079;45.958;12.492;2022-09-27T00:10:26;14.50;99.90
40374;DHT22;26079;45.958;12.492;2022-09-27T00:12:53;14.50;99.90
40374;DHT22;26079;45.958;12.492;2022-09-27T00:15:19;14.50;99.90
40374;DHT22;26079;45.958;12.492;2022-09-27T00:17:45;14.40;99.90
40374;DHT22;26079;45.958;12.492;2022-09-27T00:20:11;14.40;99.90
40374;DHT22;26079;45.958;12.492;2022-09-27T00:22:37;14.40;99.90
40374;DHT22;26079;45.958;12.492;2022-09-27T00:25:03;14.50;99.90
40374;DHT22;26079;45.958;12.492;2022-09-27T00:27:31;14.40;99.90
40374;DHT22;26079;45.958;12.492;2022-09-27T00:29:57;14.30;99.90
40374;DHT22;26079;45.958;12.492;2022-09-27T00:32:23;14.30;99.90
40374;DHT22;26079;45.958;12.492;2022-09-27T00:34:49;14.20;99.90
40374;DHT22;26079;45.958;12.492;2022-09-27T00:37:14;14.30;99.90
40374;DHT22;26079;45.958;12.492;2022-09-27T00:39:41;14.30;99.90
40374;DHT22;26079;45.958;12.492;2022-09-27T00:42:11;14.30;99.90
40374;DHT22;26079;45.958;12.492;2022-09-27T00:52:37;14.00;99.90
40374;DHT22;26079;45.958;12.492;2022-09-27T00:55:12;13.90;99.90
40374;DHT22;26079;45.958;12.492;2022-09-27T00:57:41;13.90;99.90
40374;DHT22;26079;45.958;12.492;2022-09-27T01:00:10;13.90;99.90
40374;DHT22;26079;45.958;12.492;2022-09-27T01:02:38;13.90;99.90
40374;DHT22;26079;45.958;12.492;2022-09-27T01:05:08;13.80;99.90
40374;DHT22;26079;45.958;12.492;2022-09-27T01:07:34;13.80;99.90
40374;DHT22;26079;45.958;12.492;2022-09-27T01:10:00;13.80;99.90
40374;DHT22;26079;45.958;12.492;2022-09-27T01:18:19;13.80;99.90
40374;DHT22;26079;45.958;12.492;2022-09-27T01:20:52;13.80;99.90
40374;DHT22;26079;45.958;12.492;2022-09-27T01:23:53;13.80;99.90
40374;DHT22;26079;45.958;12.492;2022-09-27T01:34:41;13.70;99.90
40374;DHT22;26079;45.958;12.492;2022-09-27T01:42:14;13.60;99.90
40374;DHT22;26079;45.958;12.492;2022-09-27T01:47:15;13.60;99.90
40374;DHT22;26079;45.958;12.492;2022-09-27T01:52:15;13.70;99.90
40374;DHT22;26079;45.958;12.492;2022-09-27T01:54:45;13.70;99.90
40374;DHT22;26079;45.958;12.492;2022-09-27T01:57:17;13.70;99.90
40374;DHT22;26079;45.958;12.492;2022-09-27T01:59:51;13.70;99.90
40374;DHT22;26079;45.958;12.492;2022-09-27T02:02:22;13.80;99.90
40374;DHT22;26079;45.958;12.492;2022-09-27T02:04:52;13.80;99.90
40374;DHT22;26079;45.958;12.492;2022-09-27T02:10:15;13.80;99.90
40374;DHT22;26079;45.958;12.492;2022-09-27T02:12:50;13.80;99.90
40374;DHT22;26079;45.958;12.492;2022-09-27T02:15:17;13.80;99.90
40374;DHT22;26079;45.958;12.492;2022-09-27T02:17:58;13.80;99.90
40374;DHT22;26079;45.958;12.492;2022-09-27T02:20:37;13.70;99.90
40374;DHT22;26079;45.958;12.492;2022-09-27T02:23:13;13.80;99.90
40374;DHT22;26079;45.958;12.492;2022-09-27T02:25:55;13.80;99.90
40374;DHT22;26079;45.958;12.492;2022-09-27T02:28:38;13.80;99.90
40374;DHT22;26079;45.958;12.492;2022-09-27T02:31:05;13.80;99.90
40374;DHT22;26079;45.958;12.492;2022-09-27T02:33:48;13.80;99.90
40374;DHT22;26079;45.958;12.492;2022-09-27T02:36:15;13.80;99.90
40374;DHT22;26079;45.958;12.492;2022-09-27T02:38:42;13.90;99.90
40374;DHT22;26079;45.958;12.492;2022-09-27T02:41:16;13.90;99.90
40374;DHT22;26079;45.958;12.492;2022-09-27T02:43:44;13.90;99.90
40374;DHT22;26079;45.958;12.492;2022-09-27T02:57:58;13.70;99.90
40374;DHT22;26079;45.958;12.492;2022-09-27T03:00:40;13.70;99.90
40374;DHT22;26079;45.958;12.492;2022-09-27T03:05:57;13.80;99.90
40374;DHT22;26079;45.958;12.492;2022-09-27T03:08:25;13.80;99.90
40374;DHT22;26079;45.958;12.492;2022-09-27T03:10:51;13.80;99.90
40374;DHT22;26079;45.958;12.492;2022-09-27T03:13:17;13.70;99.90
40374;DHT22;26079;45.958;12.492;2022-09-27T03:15:43;13.70;99.90
40374;DHT22;26079;45.958;12.492;2022-09-27T03:18:08;13.70;99.90
40374;DHT22;26079;45.958;12.492;2022-09-27T03:20:34;13.70;99.90
40374;DHT22;26079;45.958;12.492;2022-09-27T03:23:00;13.70;99.90
40374;DHT22;26079;45.958;12.492;2022-09-27T03:25:26;13.70;99.90
40374;DHT22;26079;45.958;12.492;2022-09-27T03:27:52;13.80;99.90
40374;DHT22;26079;45.958;12.492;2022-09-27T03:30:18;13.90;99.90
40374;DHT22;26079;45.958;12.492;2022-09-27T03:32:45;13.90;99.90
40374;DHT22;26079;45.958;12.492;2022-09-27T03:35:12;13.90;99.90
40374;DHT22;26079;45.958;12.492;2022-09-27T03:37:38;14.00;99.90
40374;DHT22;26079;45.958;12.492;2022-09-27T03:40:04;13.90;99.90
40374;DHT22;26079;45.958;12.492;2022-09-27T03:42:30;13.90;99.90
40374;DHT22;26079;45.958;12.492;2022-09-27T03:44:56;13.80;99.90
40374;DHT22;26079;45.958;12.492;2022-09-27T03:47:22;13.90;99.90
40374;DHT22;26079;45.958;12.492;2022-09-27T03:49:48;13.90;99.90
40374;DHT22;26079;45.958;12.492;2022-09-27T03:52:14;13.90;99.90
40374;DHT22;26079;45.958;12.492;2022-09-27T03:54:41;13.90;99.90
40374;DHT22;26079;45.958;12.492;2022-09-27T03:57:07;13.90;99.90
40374;DHT22;26079;45.958;12.492;2022-09-27T03:59:33;14.00;99.90
40374;DHT22;26079;45.958;12.492;2022-09-27T04:01:58;14.00;99.90
40374;DHT22;26079;45.958;12.492;2022-09-27T04:04:24;13.90;99.90
40374;DHT22;26079;45.958;12.492;2022-09-27T04:06:50;14.00;99.90
40374;DHT22;26079;45.958;12.492;2022-09-27T04:09:15;14.00;99.90
40374;DHT22;26079;45.958;12.492;2022-09-27T04:11:41;14.00;99.90
40374;DHT22;26079;45.958;12.492;2022-09-27T04:14:07;14.00;99.90
40374;DHT22;26079;45.958;12.492;2022-09-27T04:16:34;14.00;99.90
40374;DHT22;26079;45.958;12.492;2022-09-27T04:18:59;13.90;99.90
40374;DHT22;26079;45.958;12.492;2022-09-27T04:21:26;13.80;99.90
40374;DHT22;26079;45.958;12.492;2022-09-27T04:23:52;13.70;99.90
40374;DHT22;26079;45.958;12.492;2022-09-27T04:26:18;13.70;99.90
40374;DHT22;26079;45.958;12.492;2022-09-27T04:28:46;13.70;99.90
40374;DHT22;26079;45.958;12.492;2022-09-27T04:31:12;13.70;99.90
40374;DHT22;26079;45.958;12.492;2022-09-27T04:33:37;13.70;99.90
40374;DHT22;26079;45.958;12.492;2022-09-27T04:36:03;13.70;99.90
40374;DHT22;26079;45.958;12.492;2022-09-27T04:38:48;13.70;99.90
40374;DHT22;26079;45.958;12.492;2022-09-27T04:41:13;13.80;99.90
40374;DHT22;26079;45.958;12.492;2022-09-27T04:43:40;13.70;99.90
40374;DHT22;26079;45.958;12.492;2022-09-27T04:46:05;13.70;99.90
40374;DHT22;26079;45.958;12.492;2022-09-27T04:48:31;13.70;99.90
40374;DHT22;26079;45.958;12.492;2022-09-27T04:50:58;13.80;99.90
40374;DHT22;26079;45.958;12.492;2022-09-27T04:53:27;13.80;99.90
40374;DHT22;26079;45.958;12.492;2022-09-27T04:55:54;13.70;99.90
40374;DHT22;26079;45.958;12.492;2022-09-27T04:58:23;13.70;99.90
40374;DHT22;26079;45.958;12.492;2022-09-27T05:00:49;13.80;99.90
40374;DHT22;26079;45.958;12.492;2022-09-27T05:03:21;13.70;99.90
40374;DHT22;26079;45.958;12.492;2022-09-27T05:05:46;13.60;99.90
40374;DHT22;26079;45.958;12.492;2022-09-27T05:08:12;13.60;99.90
40374;DHT22;26079;45.958;12.492;2022-09-27T05:10:38;13.60;99.90
40374;DHT22;26079;45.958;12.492;2022-09-27T05:13:04;13.50;99.90
40374;DHT22;26079;45.958;12.492;2022-09-27T05:15:31;13.50;99.90
40374;DHT22;26079;45.958;12.492;2022-09-27T05:17:56;13.50;99.90
40374;DHT22;26079;45.958;12.492;2022-09-27T05:20:23;13.60;99.90
40374;DHT22;26079;45.958;12.492;2022-09-27T05:22:52;13.70;99.90
40374;DHT22;26079;45.958;12.492;2022-09-27T05:25:18;13.70;99.90
40374;DHT22;26079;45.958;12.492;2022-09-27T05:27:44;13.80;99.90
40374;DHT22;26079;45.958;12.492;2022-09-27T05:30:10;13.80;99.90
40374;DHT22;26079;45.958;12.492;2022-09-27T05:32:39;13.90;99.90
40374;DHT22;26079;45.958;12.492;2022-09-27T05:35:08;13.90;99.90
40374;DHT22;26079;45.958;12.492;2022-09-27T05:37:34;13.90;99.90
40374;DHT22;26079;45.958;12.492;2022-09-27T05:40:00;13.90;99.90
40374;DHT22;26079;45.958;12.492;2022-09-27T05:42:26;14.00;99.90
40374;DHT22;26079;45.958;12.492;2022-09-27T05:44:52;14.00;99.90
40374;DHT22;26079;45.958;12.492;2022-09-27T05:47:18;14.00;99.90
40374;DHT22;26079;45.958;12.492;2022-09-27T05:49:43;14.00;99.90
40374;DHT22;26079;45.958;12.492;2022-09-27T05:52:09;13.90;99.90
40374;DHT22;26079;45.958;12.492;2022-09-27T05:54:35;13.90;99.90
40374;DHT22;26079;45.958;12.492;2022-09-27T05:57:01;13.90;99.90
40374;DHT22;26079;45.958;12.492;2022-09-27T05:59:27;14.00;99.90
40374;DHT22;26079;45.958;12.492;2022-09-27T06:01:53;14.00;99.90
40374;DHT22;26079;45.958;12.492;2022-09-27T06:04:19;14.00;99.90
40374;DHT22;26079;45.958;12.492;2022-09-27T06:06:46;14.00;99.90
40374;DHT22;26079;45.958;12.492;2022-09-27T06:09:15;14.00;99.90
40374;DHT22;26079;45.958;12.492;2022-09-27T06:11:42;14.00;99.90
40374;DHT22;26079;45.958;12.492;2022-09-27T06:14:11;14.00;99.90
40374;DHT22;26079;45.958;12.492;2022-09-27T06:16:37;14.10;99.90
40374;DHT22;26079;45.958;12.492;2022-09-27T06:19:02;14.10;99.90
40374;DHT22;26079;45.958;12.492;2022-09-27T06:21:29;14.10;99.90
40374;DHT22;26079;45.958;12.492;2022-09-27T06:23:57;14.20;99.90
40374;DHT22;26079;45.958;12.492;2022-09-27T06:26:24;14.20;99.90
40374;DHT22;26079;45.958;12.492;2022-09-27T06:28:52;14.30;99.90
40374;DHT22;26079;45.958;12.492;2022-09-27T06:31:18;14.30;99.90
40374;DHT22;26079;45.958;12.492;2022-09-27T06:33:43;14.20;99.90
40374;DHT22;26079;45.958;12.492;2022-09-27T06:36:10;14.20;99.90
40374;DHT22;26079;45.958;12.492;2022-09-27T06:38:36;14.30;99.90
40374;DHT22;26079;45.958;12.492;2022-09-27T06:41:03;14.30;99.90
40374;DHT22;26079;45.958;12.492;2022-09-27T06:43:31;14.30;99.90
40374;DHT22;26079;45.958;12.492;2022-09-27T06:46:02;14.40;99.90
40374;DHT22;26079;45.958;12.492;2022-09-27T06:48:31;14.40;99.90
40374;DHT22;26079;45.958;12.492;2022-09-27T06:50:57;14.30;99.90
40374;DHT22;26079;45.958;12.492;2022-09-27T06:53:24;14.40;99.90
40374;DHT22;26079;45.958;12.492;2022-09-27T06:55:49;14.30;99.90
40374;DHT22;26079;45.958;12.492;2022-09-27T06:58:18;14.30;99.90
40374;DHT22;26079;45.958;12.492;2022-09-27T07:01:02;14.40;99.90
40374;DHT22;26079;45.958;12.492;2022-09-27T07:03:28;14.40;99.90
40374;DHT22;26079;45.958;12.492;2022-09-27T07:06:02;14.40;99.90
40374;DHT22;26079;45.958;12.492;2022-09-27T07:08:29;14.40;99.90
40374;DHT22;26079;45.958;12.492;2022-09-27T07:11:01;14.50;99.90
40374;DHT22;26079;45.958;12.492;2022-09-27T07:13:28;14.50;99.90
40374;DHT22;26079;45.958;12.492;2022-09-27T07:15:55;14.50;99.90
40374;DHT22;26079;45.958;12.492;2022-09-27T07:18:21;14.60;99.90
40374;DHT22;26079;45.958;12.492;2022-09-27T07:20:47;14.60;99.90
40374;DHT22;26079;45.958;12.492;2022-09-27T07:23:14;14.70;99.90
40374;DHT22;26079;45.958;12.492;2022-09-27T07:25:40;14.70;99.90
40374;DHT22;26079;45.958;12.492;2022-09-27T07:28:08;14.90;99.90
40374;DHT22;26079;45.958;12.492;2022-09-27T07:30:36;14.90;99.90
40374;DHT22;26079;45.958;12.492;2022-09-27T07:33:03;14.90;99.90
40374;DHT22;26079;45.958;12.492;2022-09-27T07:35:29;14.80;99.90
40374;DHT22;26079;45.958;12.492;2022-09-27T07:37:56;14.90;99.90
40374;DHT22;26079;45.958;12.492;2022-09-27T07:40:23;14.80;99.90
40374;DHT22;26079;45.958;12.492;2022-09-27T07:42:56;14.90;99.90
40374;DHT22;26079;45.958;12.492;2022-09-27T07:45:23;15.00;99.90
40374;DHT22;26079;45.958;12.492;2022-09-27T07:47:49;15.00;99.90
40374;DHT22;26079;45.958;12.492;2022-09-27T07:50:15;15.10;99.90
40374;DHT22;26079;45.958;12.492;2022-09-27T07:52:42;15.20;99.90
40374;DHT22;26079;45.958;12.492;2022-09-27T07:55:09;15.30;99.90
40374;DHT22;26079;45.958;12.492;2022-09-27T07:57:36;15.40;99.90
40374;DHT22;26079;45.958;12.492;2022-09-27T08:00:04;15.30;99.90
40374;DHT22;26079;45.958;12.492;2022-09-27T08:02:30;15.30;99.90
40374;DHT22;26079;45.958;12.492;2022-09-27T08:04:58;15.30;99.90
40374;DHT22;26079;45.958;12.492;2022-09-27T08:07:24;15.20;99.90
40374;DHT22;26079;45.958;12.492;2022-09-27T08:09:50;15.20;99.90
40374;DHT22;26079;45.958;12.492;2022-09-27T08:12:16;15.30;99.90
40374;DHT22;26079;45.958;12.492;2022-09-27T08:14:42;15.40;99.90
40374;DHT22;26079;45.958;12.492;2022-09-27T08:17:11;15.40;99.90
40374;DHT22;26079;45.958;12.492;2022-09-27T08:19:37;15.50;99.90
40374;DHT22;26079;45.958;12.492;2022-09-27T08:22:03;15.60;99.90
40374;DHT22;26079;45.958;12.492;2022-09-27T08:24:29;15.70;99.90
40374;DHT22;26079;45.958;12.492;2022-09-27T08:26:54;15.80;99.90
40374;DHT22;26079;45.958;12.492;2022-09-27T08:29:20;15.80;99.90
40374;DHT22;26079;45.958;12.492;2022-09-27T08:31:46;15.90;99.90
40374;DHT22;26079;45.958;12.492;2022-09-27T08:34:12;16.10;99.90
40374;DHT22;26079;45.958;12.492;2022-09-27T08:36:38;16.10;99.90
40374;DHT22;26079;45.958;12.492;2022-09-27T08:39:04;16.20;99.90
40374;DHT22;26079;45.958;12.492;2022-09-27T08:44:36;16.40;99.90
40374;DHT22;26079;45.958;12.492;2022-09-27T08:49:45;16.40;99.90
40374;DHT22;26079;45.958;12.492;2022-09-27T08:52:26;16.30;98.30
40374;DHT22;26079;45.958;12.492;2022-09-27T08:54:57;16.20;99.90
40374;DHT22;26079;45.958;12.492;2022-09-27T08:57:25;16.20;99.90
40374;DHT22;26079;45.958;12.492;2022-09-27T09:00:04;16.20;99.90
40374;DHT22;26079;45.958;12.492;2022-09-27T09:02:31;16.20;99.90
40374;DHT22;26079;45.958;12.492;2022-09-27T09:05:21;16.20;99.60
40374;DHT22;26079;45.958;12.492;2022-09-27T09:19:39;16.60;99.90
40374;DHT22;26079;45.958;12.492;2022-09-27T09:35:02;17.10;97.20
40374;DHT22;26079;45.958;12.492;2022-09-27T09:37:38;17.00;97.20
40374;DHT22;26079;45.958;12.492;2022-09-27T09:40:30;17.00;98.20
40374;DHT22;26079;45.958;12.492;2022-09-27T09:45:47;16.70;99.90
40374;DHT22;26079;45.958;12.492;2022-09-27T09:48:46;16.70;99.90
40374;DHT22;26079;45.958;12.492;2022-09-27T09:51:18;16.70;99.80
40374;DHT22;26079;45.958;12.492;2022-09-27T09:54:13;16.80;99.50
40374;DHT22;26079;45.958;12.492;2022-09-27T09:56:54;16.90;99.00
40374;DHT22;26079;45.958;12.492;2022-09-27T09:59:32;17.00;98.70
40374;DHT22;26079;45.958;12.492;2022-09-27T10:02:13;16.90;98.60
40374;DHT22;26079;45.958;12.492;2022-09-27T10:04:42;16.90;99.70
40374;DHT22;26079;45.958;12.492;2022-09-27T10:07:08;16.90;98.90
40374;DHT22;26079;45.958;12.492;2022-09-27T10:09:34;16.90;99.70
40374;DHT22;26079;45.958;12.492;2022-09-27T10:12:00;16.80;99.20
40374;DHT22;26079;45.958;12.492;2022-09-27T10:14:27;16.80;99.50
40374;DHT22;26079;45.958;12.492;2022-09-27T10:17:02;17.00;99.90
40374;DHT22;26079;45.958;12.492;2022-09-27T10:19:32;17.10;99.90
40374;DHT22;26079;45.958;12.492;2022-09-27T10:22:29;17.30;97.30
40374;DHT22;26079;45.958;12.492;2022-09-27T10:25:07;17.40;96.50
40374;DHT22;26079;45.958;12.492;2022-09-27T10:27:48;17.50;94.70
40374;DHT22;26079;45.958;12.492;2022-09-27T10:32:50;17.80;91.50
40374;DHT22;26079;45.958;12.492;2022-09-27T10:40:42;18.30;92.80
40374;DHT22;26079;45.958;12.492;2022-09-27T10:43:31;18.30;90.10
40374;DHT22;26079;45.958;12.492;2022-09-27T10:46:15;18.20;90.00
40374;DHT22;26079;45.958;12.492;2022-09-27T10:48:41;18.10;90.00
40374;DHT22;26079;45.958;12.492;2022-09-27T10:51:28;18.10;92.90
40374;DHT22;26079;45.958;12.492;2022-09-27T10:53:55;18.10;90.20
40374;DHT22;26079;45.958;12.492;2022-09-27T10:56:33;18.00;89.50
40374;DHT22;26079;45.958;12.492;2022-09-27T10:58:59;17.90;92.10
40374;DHT22;26079;45.958;12.492;2022-09-27T11:01:38;18.00;91.00
40374;DHT22;26079;45.958;12.492;2022-09-27T11:04:05;18.20;91.30
40374;DHT22;26079;45.958;12.492;2022-09-27T11:06:32;18.60;90.20
40374;DHT22;26079;45.958;12.492;2022-09-27T11:09:18;18.70;89.20
40374;DHT22;26079;45.958;12.492;2022-09-27T11:11:44;19.00;87.80
40374;DHT22;26079;45.958;12.492;2022-09-27T11:14:20;19.00;87.70
40374;DHT22;26079;45.958;12.492;2022-09-27T11:30:09;19.80;86.60
40374;DHT22;26079;45.958;12.492;2022-09-27T11:43:23;20.00;84.90
40374;DHT22;26079;45.958;12.492;2022-09-27T11:46:33;20.00;84.20
40374;DHT22;26079;45.958;12.492;2022-09-27T11:52:01;20.30;83.70
40374;DHT22;26079;45.958;12.492;2022-09-27T11:57:29;20.30;85.70
40374;DHT22;26079;45.958;12.492;2022-09-27T12:10:49;20.00;85.20
40374;DHT22;26079;45.958;12.492;2022-09-27T12:13:40;20.10;85.80
40374;DHT22;26079;45.958;12.492;2022-09-27T12:16:04;20.10;83.60
40374;DHT22;26079;45.958;12.492;2022-09-27T12:18:37;20.20;84.50
40374;DHT22;26079;45.958;12.492;2022-09-27T12:21:06;20.30;84.10
40374;DHT22;26079;45.958;12.492;2022-09-27T12:23:53;20.50;83.50
40374;DHT22;26079;45.958;12.492;2022-09-27T12:26:24;20.60;81.20
40374;DHT22;26079;45.958;12.492;2022-09-27T12:34:23;20.60;83.20
40374;DHT22;26079;45.958;12.492;2022-09-27T12:37:14;20.30;83.00
40374;DHT22;26079;45.958;12.492;2022-09-27T12:40:00;19.90;86.00
40374;DHT22;26079;45.958;12.492;2022-09-27T12:42:32;19.80;86.20
40374;DHT22;26079;45.958;12.492;2022-09-27T12:45:00;19.50;86.60
40374;DHT22;26079;45.958;12.492;2022-09-27T12:47:41;19.60;87.00
40374;DHT22;26079;45.958;12.492;2022-09-27T12:53:16;19.20;86.70
40374;DHT22;26079;45.958;12.492;2022-09-27T13:04:40;18.70;89.20
40374;DHT22;26079;45.958;12.492;2022-09-27T13:13:01;19.20;86.40
40374;DHT22;26079;45.958;12.492;2022-09-27T13:15:34;19.40;86.80
40374;DHT22;26079;45.958;12.492;2022-09-27T13:18:03;19.50;86.50
40374;DHT22;26079;45.958;12.492;2022-09-27T13:23:02;19.90;84.60
40374;DHT22;26079;45.958;12.492;2022-09-27T13:28:33;20.10;84.10
40374;DHT22;26079;45.958;12.492;2022-09-27T13:31:12;20.00;82.10
40374;DHT22;26079;45.958;12.492;2022-09-27T13:33:50;19.80;82.90
40374;DHT22;26079;45.958;12.492;2022-09-27T13:44:28;19.60;83.60
40374;DHT22;26079;45.958;12.492;2022-09-27T13:47:11;19.60;83.40
40374;DHT22;26079;45.958;12.492;2022-09-27T13:49:40;19.70;82.60
40374;DHT22;26079;45.958;12.492;2022-09-27T13:52:30;19.70;83.60
40374;DHT22;26079;45.958;12.492;2022-09-27T13:55:02;19.70;83.60
40374;DHT22;26079;45.958;12.492;2022-09-27T13:57:54;19.70;83.00
40374;DHT22;26079;45.958;12.492;2022-09-27T14:00:23;19.70;84.00
40374;DHT22;26079;45.958;12.492;2022-09-27T14:05:22;19.70;83.30
40374;DHT22;26079;45.958;12.492;2022-09-27T14:07:49;19.70;83.40
40374;DHT22;26079;45.958;12.492;2022-09-27T14:10:18;19.50;82.70
40374;DHT22;26079;45.958;12.492;2022-09-27T14:12:50;19.40;82.90
40374;DHT22;26079;45.958;12.492;2022-09-27T14:15:28;19.40;83.00
40374;DHT22;26079;45.958;12.492;2022-09-27T14:17:56;19.40;82.90
40374;DHT22;26079;45.958;12.492;2022-09-27T14:20:37;19.50;84.40
40374;DHT22;26079;45.958;12.492;2022-09-27T14:25:52;19.40;84.10
40374;DHT22;26079;45.958;12.492;2022-09-27T14:28:29;19.40;82.80
40374;DHT22;26079;45.958;12.492;2022-09-27T14:33:41;19.30;83.70
40374;DHT22;26079;45.958;12.492;2022-09-27T14:36:15;19.30;84.70
40374;DHT22;26079;45.958;12.492;2022-09-27T14:39:15;19.20;83.80
40374;DHT22;26079;45.958;12.492;2022-09-27T14:41:44;19.00;84.20
40374;DHT22;26079;45.958;12.492;2022-09-27T14:44:20;19.00;84.30
40374;DHT22;26079;45.958;12.492;2022-09-27T14:46:46;18.90;85.80
40374;DHT22;26079;45.958;12.492;2022-09-27T14:49:23;18.90;85.20
40374;DHT22;26079;45.958;12.492;2022-09-27T14:51:53;18.80;86.10
40374;DHT22;26079;45.958;12.492;2022-09-27T14:54:25;18.80;86.90
40374;DHT22;26079;45.958;12.492;2022-09-27T14:56:52;18.80;86.30
40374;DHT22;26079;45.958;12.492;2022-09-27T14:59:24;18.80;86.80
40374;DHT22;26079;45.958;12.492;2022-09-27T15:01:55;18.80;86.80
40374;DHT22;26079;45.958;12.492;2022-09-27T15:04:24;18.80;88.30
40374;DHT22;26079;45.958;12.492;2022-09-27T15:06:53;18.70;85.30
40374;DHT22;26079;45.958;12.492;2022-09-27T15:09:20;18.60;86.30
40374;DHT22;26079;45.958;12.492;2022-09-27T15:11:52;18.60;86.30
40374;DHT22;26079;45.958;12.492;2022-09-27T15:14:19;18.60;85.60
40374;DHT22;26079;45.958;12.492;2022-09-27T15:16:48;18.50;85.40
40374;DHT22;26079;45.958;12.492;2022-09-27T15:19:25;18.50;85.60
40374;DHT22;26079;45.958;12.492;2022-09-27T15:21:52;18.50;84.80
40374;DHT22;26079;45.958;12.492;2022-09-27T15:24:38;18.50;85.60
40374;DHT22;26079;45.958;12.492;2022-09-27T15:27:16;18.50;82.10
40374;DHT22;26079;45.958;12.492;2022-09-27T15:29:53;18.50;81.30
40374;DHT22;26079;45.958;12.492;2022-09-27T15:32:22;18.40;82.50
40374;DHT22;26079;45.958;12.492;2022-09-27T15:34:49;18.30;81.50
40374;DHT22;26079;45.958;12.492;2022-09-27T15:42:54;18.20;82.10
40374;DHT22;26079;45.958;12.492;2022-09-27T15:45:28;18.20;81.20
40374;DHT22;26079;45.958;12.492;2022-09-27T15:47:54;18.10;81.10
40374;DHT22;26079;45.958;12.492;2022-09-27T15:52:54;18.00;80.80
40374;DHT22;26079;45.958;12.492;2022-09-27T15:55:24;18.00;81.70
40374;DHT22;26079;45.958;12.492;2022-09-27T15:58:19;18.00;81.60
40374;DHT22;26079;45.958;12.492;2022-09-27T16:00:56;17.90;82.70
40374;DHT22;26079;45.958;12.492;2022-09-27T16:03:24;17.90;83.00
40374;DHT22;26079;45.958;12.492;2022-09-27T16:05:50;17.90;83.30
40374;DHT22;26079;45.958;12.492;2022-09-27T16:08:16;17.90;83.80
40374;DHT22;26079;45.958;12.492;2022-09-27T16:10:49;18.00;85.30
40374;DHT22;26079;45.958;12.492;2022-09-27T16:13:15;18.10;87.10
40374;DHT22;26079;45.958;12.492;2022-09-27T16:15:41;18.10;87.80
40374;DHT22;26079;45.958;12.492;2022-09-27T16:18:08;18.00;87.80
40374;DHT22;26079;45.958;12.492;2022-09-27T16:20:33;17.90;88.50
40374;DHT22;26079;45.958;12.492;2022-09-27T16:22:59;17.90;88.90
40374;DHT22;26079;45.958;12.492;2022-09-27T16:25:25;17.90;88.80
40374;DHT22;26079;45.958;12.492;2022-09-27T16:27:51;17.80;88.20
40374;DHT22;26079;45.958;12.492;2022-09-27T16:30:17;17.80;88.90
40374;DHT22;26079;45.958;12.492;2022-09-27T16:32:46;17.70;88.90
40374;DHT22;26079;45.958;12.492;2022-09-27T16:35:13;17.60;89.10
40374;DHT22;26079;45.958;12.492;2022-09-27T16:37:39;17.60;89.20
40374;DHT22;26079;45.958;12.492;2022-09-27T16:40:07;17.50;88.50
40374;DHT22;26079;45.958;12.492;2022-09-27T16:42:34;17.50;89.00
40374;DHT22;26079;45.958;12.492;2022-09-27T16:45:01;17.40;87.80
40374;DHT22;26079;45.958;12.492;2022-09-27T16:47:27;17.30;86.60
40374;DHT22;26079;45.958;12.492;2022-09-27T16:49:53;17.20;86.90
40374;DHT22;26079;45.958;12.492;2022-09-27T16:52:38;17.10;87.10
40374;DHT22;26079;45.958;12.492;2022-09-27T16:55:04;17.00;87.70
40374;DHT22;26079;45.958;12.492;2022-09-27T16:57:33;17.00;87.70
40374;DHT22;26079;45.958;12.492;2022-09-27T17:00:00;17.00;88.60
40374;DHT22;26079;45.958;12.492;2022-09-27T17:02:26;17.00;88.50
40374;DHT22;26079;45.958;12.492;2022-09-27T17:04:52;16.90;88.70
40374;DHT22;26079;45.958;12.492;2022-09-27T17:07:19;16.90;88.60
40374;DHT22;26079;45.958;12.492;2022-09-27T17:09:45;16.90;88.50
40374;DHT22;26079;45.958;12.492;2022-09-27T17:12:12;16.90;88.20
40374;DHT22;26079;45.958;12.492;2022-09-27T17:14:38;16.90;88.60
40374;DHT22;26079;45.958;12.492;2022-09-27T17:17:04;16.80;88.70
40374;DHT22;26079;45.958;12.492;2022-09-27T17:19:30;16.80;89.90
40374;DHT22;26079;45.958;12.492;2022-09-27T17:21:57;16.70;89.40
40374;DHT22;26079;45.958;12.492;2022-09-27T17:24:23;16.60;89.40
40374;DHT22;26079;45.958;12.492;2022-09-27T17:26:49;16.60;90.50
40374;DHT22;26079;45.958;12.492;2022-09-27T17:29:16;16.50;90.70
40374;DHT22;26079;45.958;12.492;2022-09-27T17:31:42;16.50;89.50
40374;DHT22;26079;45.958;12.492;2022-09-27T17:34:10;16.40;90.00
40374;DHT22;26079;45.958;12.492;2022-09-27T17:36:42;16.40;89.20
40374;DHT22;26079;45.958;12.492;2022-09-27T17:39:13;16.40;88.40
40374;DHT22;26079;45.958;12.492;2022-09-27T17:41:40;16.40;88.40
40374;DHT22;26079;45.958;12.492;2022-09-27T17:44:05;16.40;87.40
40374;DHT22;26079;45.958;12.492;2022-09-27T17:46:34;16.50;87.50
40374;DHT22;26079;45.958;12.492;2022-09-27T17:49:01;16.50;87.50
40374;DHT22;26079;45.958;12.492;2022-09-27T17:51:50;16.40;86.90
40374;DHT22;26079;45.958;12.492;2022-09-27T17:54:18;16.40;88.10
40374;DHT22;26079;45.958;12.492;2022-09-27T17:56:45;16.40;89.00
40374;DHT22;26079;45.958;12.492;2022-09-27T17:59:12;16.40;90.00
40374;DHT22;26079;45.958;12.492;2022-09-27T18:01:40;16.40;89.90
40374;DHT22;26079;45.958;12.492;2022-09-27T18:04:08;16.30;91.00
40374;DHT22;26079;45.958;12.492;2022-09-27T18:06:40;16.40;90.90
40374;DHT22;26079;45.958;12.492;2022-09-27T18:09:07;16.30;91.80
40374;DHT22;26079;45.958;12.492;2022-09-27T18:11:33;16.00;93.70
40374;DHT22;26079;45.958;12.492;2022-09-27T18:14:00;16.00;93.90
40374;DHT22;26079;45.958;12.492;2022-09-27T18:16:31;15.80;94.00
40374;DHT22;26079;45.958;12.492;2022-09-27T18:18:59;15.70;94.00
40374;DHT22;26079;45.958;12.492;2022-09-27T18:21:26;15.40;98.70
40374;DHT22;26079;45.958;12.492;2022-09-27T18:23:54;15.20;99.90
40374;DHT22;26079;45.958;12.492;2022-09-27T18:26:21;15.10;99.90
40374;DHT22;26079;45.958;12.492;2022-09-27T18:28:58;15.10;99.90
40374;DHT22;26079;45.958;12.492;2022-09-27T18:31:24;15.00;99.90
40374;DHT22;26079;45.958;12.492;2022-09-27T18:33:50;14.90;99.90
40374;DHT22;26079;45.958;12.492;2022-09-27T18:36:24;14.90;99.90